Time;durP1;ratioP1;P1;durP2;ratioP2;P2;SDS_P1;SDS_P2;PMS_P1;PMS_P2;Temp;Humidity;BMP_temperature;BMP_pressure;BME280_temperature;BME280_humidity;BME280_pressure;Samples;Min_cycle;Max_cycle;Signal;HPM_P1;HPM_P2
2022/09/15 04:19:48;;;;;;;13.50;5.07;;;;;;;18.95;100.00;99275.44;5566404;32;189541;-87
2022/09/15 04:22:52;;;;;;;7.97;4.93;;;;;;;18.95;100.00;99275.44;5553189;32;35028;-89
2022/09/15 04:26:28;;;;;;;9.10;4.10;;;;;;;18.50;100.00;99265.72;5544574;32;34028;-88
2022/09/15 04:29:31;;;;;;;7.32;3.83;;;;;;;18.39;100.00;99262.25;5544363;32;33809;-88
2022/09/15 04:32:35;;;;;;;6.25;3.70;;;;;;;18.44;100.00;99254.59;5546372;32;33713;-88
2022/09/15 04:35:38;;;;;;;5.30;3.87;;;;;;;18.46;100.00;99267.88;5545384;32;33848;-89
2022/09/15 04:38:42;;;;;;;4.72;2.62;;;;;;;18.48;100.00;99283.81;5545139;32;33681;-89
2022/09/15 04:41:45;;;;;;;3.47;2.10;;;;;;;18.60;100.00;99285.25;5547459;32;34043;-89
2022/09/15 04:44:48;;;;;;;7.70;2.33;;;;;;;18.86;100.00;99274.53;5547970;32;34159;-89
2022/09/15 04:47:52;;;;;;;3.97;2.35;;;;;;;19.08;100.00;99272.38;5551585;32;34511;-88
2022/09/15 04:51:04;;;;;;;4.45;2.72;;;;;;;19.16;100.00;99266.19;5546609;32;32213;-88
2022/09/15 04:54:07;;;;;;;3.00;2.50;;;;;;;19.28;100.00;99265.91;5545236;32;34579;-88
2022/09/15 04:57:10;;;;;;;4.62;2.70;;;;;;;19.52;100.00;99271.38;5544293;32;33807;-88
2022/09/15 05:00:15;;;;;;;4.93;2.78;;;;;;;19.52;100.00;99266.00;5544265;32;33802;-88
2022/09/15 05:03:18;;;;;;;6.62;3.03;;;;;;;19.66;100.00;99271.78;5542898;32;34115;-88
2022/09/15 05:06:25;;;;;;;5.80;3.28;;;;;;;19.57;100.00;99262.84;5544559;32;33940;-89
2022/09/15 05:44:21;;;;;;;8.52;3.17;;;;;;;20.33;100.00;99322.09;984980;26;20055;-89
2022/09/15 06:02:24;;;;;;;5.37;3.37;;;;;;;20.15;100.00;99329.47;2776455;26;20690;-87
2022/09/15 06:05:28;;;;;;;7.62;3.50;;;;;;;20.27;100.00;99325.47;5528594;32;34767;-90
2022/09/15 06:23:58;;;;;;;8.35;3.50;;;;;;;20.94;100.00;99322.84;796340;26;21033;-90
2022/09/15 06:27:25;;;;;;;5.87;3.15;;;;;;;20.87;100.00;99311.91;5576970;26;31346;-91
2022/09/15 06:30:39;;;;;;;5.37;3.10;;;;;;;21.00;100.00;99338.34;5527144;32;32896;-87
2022/09/15 06:33:50;;;;;;;6.32;3.72;;;;;;;21.06;100.00;99350.31;5542754;32;34289;-88
2022/09/15 06:36:53;;;;;;;9.38;3.40;;;;;;;21.19;100.00;99356.00;5547236;32;34299;-88
2022/09/15 06:39:56;;;;;;;8.13;3.28;;;;;;;21.23;100.00;99349.25;5548970;32;33857;-87
2022/09/15 06:43:00;;;;;;;6.72;3.28;;;;;;;21.25;100.00;99354.47;5545612;32;34672;-87
2022/09/15 06:46:06;;;;;;;4.75;2.85;;;;;;;21.52;99.26;99353.22;5545453;32;33894;-87
2022/09/15 06:49:09;;;;;;;5.78;3.25;;;;;;;21.61;98.55;99355.91;5545619;32;33801;-87
2022/09/15 06:52:12;;;;;;;6.05;3.20;;;;;;;21.51;99.21;99356.09;5503812;32;33411;-87
2022/09/15 06:55:15;;;;;;;6.45;3.50;;;;;;;21.59;98.57;99349.84;5537385;32;34007;-87
2022/09/15 06:58:18;;;;;;;21.33;5.32;;;;;;;21.57;98.03;99359.97;5531197;32;35414;-91
2022/09/15 07:01:28;;;;;;;9.75;3.20;;;;;;;21.06;100.00;99361.09;5517745;32;32597;-91
2022/09/15 07:04:33;;;;;;;7.55;3.33;;;;;;;20.99;100.00;99367.16;5543635;32;34577;-87
2022/09/15 07:07:36;;;;;;;10.82;3.10;;;;;;;21.34;100.00;99358.84;5542966;32;33999;-87
2022/09/15 07:10:42;;;;;;;6.55;3.40;;;;;;;21.52;100.00;99365.91;5545132;32;35170;-88
2022/09/15 07:13:47;;;;;;;6.82;3.60;;;;;;;21.62;98.24;99371.09;5537566;32;33975;-87
2022/09/15 07:16:50;;;;;;;9.60;3.60;;;;;;;21.89;97.98;99375.25;5535836;32;34221;-88
2022/09/15 07:19:53;;;;;;;5.30;3.22;;;;;;;22.25;95.82;99386.53;5530745;32;32696;-90
2022/09/15 07:22:56;;;;;;;7.80;3.30;;;;;;;22.50;95.00;99389.97;5545947;32;35212;-87
2022/09/15 07:26:06;;;;;;;5.60;2.50;;;;;;;23.22;87.41;99396.00;5546859;32;34078;-86
2022/09/15 07:29:09;;;;;;;4.28;2.90;;;;;;;23.36;85.45;99388.12;5533534;32;35345;-86
2022/09/15 07:32:12;;;;;;;5.05;2.97;;;;;;;23.64;84.52;99388.34;5538813;32;34167;-88
2022/09/15 07:35:15;;;;;;;5.10;2.53;;;;;;;25.32;78.08;99388.53;5534414;32;33945;-88
2022/09/15 07:38:18;;;;;;;5.25;2.30;;;;;;;26.50;69.42;99380.59;5538854;32;33776;-86
2022/09/15 07:41:26;;;;;;;3.28;2.20;;;;;;;26.56;69.77;99393.38;5522353;32;33677;-90
2022/09/15 07:44:31;;;;;;;11.52;2.60;;;;;;;25.70;71.09;99388.19;5546552;32;34207;-88
2022/09/15 07:47:34;;;;;;;6.62;2.17;;;;;;;25.40;72.92;99390.28;5546443;32;33194;-89
2022/09/15 07:50:37;;;;;;;5.70;2.60;;;;;;;25.89;68.97;99383.06;5544496;32;35361;-89
2022/09/15 07:53:41;;;;;;;5.78;2.33;;;;;;;26.35;66.20;99397.09;5543783;32;33866;-89
2022/09/15 07:56:44;;;;;;;3.72;1.85;;;;;;;27.40;61.54;99390.28;5556190;32;34753;-90
2022/09/15 08:03:48;;;;;;;9.57;2.17;;;;;;;29.88;51.90;99395.53;3670912;27;20111;-85
2022/09/15 08:06:51;;;;;;;7.47;1.98;;;;;;;31.53;48.41;99403.72;5530300;32;33939;-86
2022/09/15 08:09:54;;;;;;;4.50;2.00;;;;;;;30.56;48.79;99390.91;5522521;32;34601;-87
2022/09/15 08:12:58;;;;;;;2.83;1.50;;;;;;;30.83;48.05;99398.75;5552565;32;33839;-86
2022/09/15 08:16:12;;;;;;;2.92;1.80;;;;;;;30.03;49.85;99398.75;5544760;32;34467;-89
2022/09/15 08:19:16;;;;;;;6.25;2.17;;;;;;;28.62;54.91;99411.72;5531587;32;33669;-86
2022/09/15 08:22:18;;;;;;;2.90;1.90;;;;;;;27.43;58.08;99399.91;5546775;32;33948;-87
2022/09/15 08:25:22;;;;;;;4.32;2.20;;;;;;;27.04;59.62;99402.44;5541798;32;34901;-87
2022/09/15 08:28:25;;;;;;;3.70;1.80;;;;;;;26.66;62.04;99401.13;5530351;32;34562;-88
2022/09/15 08:31:29;;;;;;;9.93;2.35;;;;;;;26.16;63.68;99398.66;5549762;26;34003;-88
2022/09/15 08:34:32;;;;;;;4.87;2.00;;;;;;;26.72;63.63;99394.00;5534026;32;33785;-88
2022/09/15 09:24:26;;;;;;;1.62;1.10;;;;;;;29.88;43.33;99341.72;2458500;29;20131;-92
2022/09/15 09:27:33;;;;;;;3.60;1.30;;;;;;;30.21;42.87;99323.25;5453458;32;33998;-91
2022/09/15 09:30:37;;;;;;;10.02;1.60;;;;;;;31.13;41.72;99317.59;5451840;32;33788;-91
2022/09/15 09:37:32;;;;;;;5.70;2.10;;;;;;;30.74;41.56;99318.91;2060245;30;20079;-90
2022/09/15 09:40:40;;;;;;;4.20;2.15;;;;;;;30.12;42.96;99323.56;5472943;32;32440;-90
2022/09/15 09:55:22;;;;;;;2.97;1.33;;;;;;;27.19;49.23;99317.84;5350081;27;22081;-90
2022/09/15 09:58:25;;;;;;;3.97;1.67;;;;;;;26.54;51.00;99300.28;5502052;32;32976;-90
2022/09/15 10:01:29;;;;;;;4.10;1.95;;;;;;;27.13;49.53;99297.78;5529889;32;32232;-90
2022/09/15 10:04:32;;;;;;;4.47;2.25;;;;;;;27.45;49.17;99302.50;5510868;32;32861;-90
2022/09/15 10:07:42;;;;;;;8.30;1.70;;;;;;;27.39;49.18;99298.78;5511741;32;32342;-89
2022/09/15 10:10:51;;;;;;;2.60;1.62;;;;;;;27.45;49.42;99295.19;5517832;32;33062;-90
2022/09/15 10:13:55;;;;;;;2.87;1.58;;;;;;;27.51;50.34;99284.50;5517043;32;33119;-89
2022/09/15 10:17:07;;;;;;;2.55;1.17;;;;;;;27.52;50.22;99283.44;5531204;32;32858;-89
2022/09/15 10:24:23;;;;;;;2.80;1.60;;;;;;;27.63;49.70;99266.47;3747907;26;20099;-88
2022/09/15 10:27:30;;;;;;;16.80;2.55;;;;;;;27.65;48.90;99253.44;5528631;32;33700;-88
2022/09/15 10:30:36;;;;;;;2.25;1.40;;;;;;;27.74;50.10;99245.87;5535498;32;33964;-91
2022/09/15 10:33:53;;;;;;;2.60;1.65;;;;;;;27.81;49.85;99243.94;5546690;26;35250;31
2022/09/15 10:37:23;;;;;;;2.47;1.45;;;;;;;27.92;48.52;99241.59;5500384;32;32176;-90
2022/09/15 10:40:36;;;;;;;1.65;1.30;;;;;;;27.87;49.49;99246.84;5502015;32;32701;-88
2022/09/15 10:44:00;;;;;;;2.58;1.48;;;;;;;27.97;48.90;99249.94;5524736;32;34748;-88
2022/09/15 10:47:26;;;;;;;2.35;1.52;;;;;;;27.90;49.70;99249.97;5525694;26;32910;-89
2022/09/15 10:50:31;;;;;;;2.78;1.40;;;;;;;27.75;48.48;99254.91;5552567;26;33123;-89
2022/09/15 10:53:58;;;;;;;2.25;1.20;;;;;;;27.73;48.52;99259.69;5507923;32;31441;-91
2022/09/15 12:29:57;;;;;;;5.75;3.10;;;;;;;25.39;71.19;99174.19;3717900;26;20091;-89
2022/09/15 12:33:39;;;;;;;7.85;3.55;;;;;;;25.38;73.33;99164.34;5556104;32;34303;-86
2022/09/15 12:36:46;;;;;;;7.28;3.20;;;;;;;25.08;76.67;99173.62;5547885;32;33107;-86
2022/09/15 12:39:50;;;;;;;5.45;3.05;;;;;;;24.80;77.83;99165.50;5546835;32;33862;-86
2022/09/15 12:42:53;;;;;;;8.00;3.10;;;;;;;24.65;80.84;99162.91;5565148;32;35471;-86
2022/09/15 12:45:59;;;;;;;8.25;3.60;;;;;;;24.31;82.78;99157.25;5548528;32;32956;-86
2022/09/15 12:49:02;;;;;;;9.77;3.90;;;;;;;24.11;87.25;99163.34;5548856;32;34222;-86
2022/09/15 12:52:07;;;;;;;7.80;3.62;;;;;;;23.77;91.78;99175.66;5555773;31;33708;-86
2022/09/15 12:55:36;;;;;;;5.93;3.80;;;;;;;23.28;97.96;99162.63;5569386;32;32751;-85
2022/09/15 12:58:44;;;;;;;8.25;4.03;;;;;;;22.84;100.00;99156.22;5574017;32;34184;-85
2022/09/15 13:01:49;;;;;;;6.80;3.83;;;;;;;22.67;100.00;99165.56;5567675;32;32790;-86
2022/09/15 13:04:53;;;;;;;6.43;3.33;;;;;;;22.10;100.00;99198.28;5561521;32;34238;-87
2022/09/15 13:07:57;;;;;;;7.10;3.30;;;;;;;21.88;100.00;99199.97;5563598;32;34429;-86
2022/09/15 13:11:07;;;;;;;5.15;3.10;;;;;;;21.70;100.00;99178.63;5572983;32;32534;-86
2022/09/15 13:14:21;;;;;;;7.07;3.43;;;;;;;21.20;100.00;99177.03;5558091;32;34155;-86
2022/09/15 13:17:25;;;;;;;7.60;4.10;;;;;;;21.49;100.00;99183.63;5551927;32;33551;-86
2022/09/15 13:20:33;;;;;;;11.68;4.05;;;;;;;20.99;100.00;99194.63;5553909;32;34014;-85
2022/09/15 13:23:40;;;;;;;6.55;3.40;;;;;;;20.73;100.00;99195.66;5556461;32;33690;-85
2022/09/15 13:26:51;;;;;;;6.82;3.40;;;;;;;20.44;100.00;99183.59;5555519;32;34715;-89
2022/09/15 13:53:15;;;;;;;9.43;4.18;;;;;;;18.51;100.00;99209.16;789780;29;20351;-91
2022/09/15 13:56:24;;;;;;;8.43;3.12;;;;;;;18.47;100.00;99201.56;5526648;32;32735;-90
2022/09/15 13:59:31;;;;;;;8.70;3.42;;;;;;;18.20;100.00;99203.38;5511890;32;32440;-89
2022/09/15 14:02:34;;;;;;;12.52;3.65;;;;;;;17.83;100.00;99211.41;5533246;32;34570;-90
2022/09/15 14:05:39;;;;;;;10.82;3.40;;;;;;;17.80;100.00;99211.69;5554584;26;33903;-89
2022/09/15 14:08:50;;;;;;;5.90;3.37;;;;;;;17.57;100.00;99184.47;5525454;32;33580;-90
2022/09/15 14:23:14;;;;;;;7.43;3.60;;;;;;;17.73;100.00;99170.37;5548113;32;32239;-89
2022/09/15 14:26:25;;;;;;;9.55;3.33;;;;;;;17.70;100.00;99186.78;5533894;32;32364;-89
2022/09/15 14:29:28;;;;;;;9.60;3.72;;;;;;;17.62;100.00;99195.59;5531044;32;34209;-89
2022/09/15 14:32:37;;;;;;;11.45;3.35;;;;;;;17.55;100.00;99181.94;5517008;32;32493;-89
2022/09/15 14:35:45;;;;;;;7.45;3.05;;;;;;;17.51;100.00;99169.84;5530314;32;32830;-90
2022/09/15 14:39:10;;;;;;;7.00;3.47;;;;;;;17.50;100.00;99181.56;5534750;32;34302;-93
2022/09/15 14:42:21;;;;;;;8.10;2.87;;;;;;;17.54;100.00;99195.50;5548082;32;34887;-90
2022/09/15 14:45:40;;;;;;;;;;;;;;;17.56;100.00;99214.97;5535215;32;33584;-90
2022/09/15 14:49:14;;;;;;;7.20;3.20;;;;;;;17.57;100.00;99224.69;5534798;32;35237;-89
2022/09/15 14:52:28;;;;;;;8.38;3.92;;;;;;;17.64;100.00;99217.72;5519873;32;32947;-88
2022/09/15 14:55:51;;;;;;;8.20;3.95;;;;;;;17.52;100.00;99217.94;5534057;32;34487;-88
2022/09/15 14:59:03;;;;;;;10.85;4.18;;;;;;;17.42;100.00;99209.13;5536729;32;33935;-89
2022/09/15 15:02:27;;;;;;;8.15;3.75;;;;;;;17.40;100.00;99215.63;5517580;32;33677;-88
2022/09/15 15:05:40;;;;;;;7.72;4.22;;;;;;;17.40;100.00;99247.78;5529348;32;34027;-89
2022/09/15 15:08:55;;;;;;;8.63;4.30;;;;;;;17.45;100.00;99254.37;5529390;32;33928;-93
2022/09/15 15:12:18;;;;;;;10.68;4.22;;;;;;;17.46;100.00;99229.25;5515652;32;32399;-89
2022/09/15 15:15:21;;;;;;;8.40;3.80;;;;;;;17.46;100.00;99205.12;5515172;32;33038;-89
2022/09/15 15:18:38;;;;;;;6.55;4.20;;;;;;;17.46;100.00;99209.66;5528582;32;34781;-89
2022/09/15 15:21:43;;;;;;;6.35;4.00;;;;;;;17.46;100.00;99188.22;5514814;32;33119;-89
2022/09/15 15:24:52;;;;;;;6.03;4.20;;;;;;;17.47;100.00;99165.78;5515395;32;33099;-89
2022/09/15 15:27:59;;;;;;;7.28;4.60;;;;;;;17.52;100.00;99164.31;5515826;32;34049;-89
2022/09/15 15:31:14;;;;;;;9.45;3.87;;;;;;;17.54;100.00;99163.34;5530365;32;33823;-89
2022/09/15 15:34:23;;;;;;;7.75;3.90;;;;;;;17.56;100.00;99159.50;5529458;32;33839;-89
2022/09/15 15:37:27;;;;;;;9.45;4.30;;;;;;;17.49;100.00;99164.63;5528757;32;33900;-89
2022/09/15 15:40:35;;;;;;;7.75;4.03;;;;;;;17.50;100.00;99201.16;5514976;32;33466;-89
2022/09/15 15:44:06;;;;;;;7.18;4.28;;;;;;;17.61;100.00;99224.22;5514791;32;33766;-89
2022/09/15 15:47:13;;;;;;;6.47;4.25;;;;;;;17.67;100.00;99221.94;5514674;32;32994;-89
